sensor_id;sensor_type;location;lat;lon;timestamp;P1;durP1;ratioP1;P2;durP2;ratioP2
21941;SDS011;11135;54.192;15.670;2022-10-17T00:01:04;7.47;;;4.73;;
21941;SDS011;11135;54.192;15.670;2022-10-17T00:04:11;6.68;;;4.47;;
21941;SDS011;11135;54.192;15.670;2022-10-17T00:07:15;7.65;;;4.80;;
21941;SDS011;11135;54.192;15.670;2022-10-17T00:10:22;8.68;;;4.10;;
21941;SDS011;11135;54.192;15.670;2022-10-17T00:13:30;9.23;;;4.60;;
21941;SDS011;11135;54.192;15.670;2022-10-17T00:16:36;8.32;;;4.55;;
21941;SDS011;11135;54.192;15.670;2022-10-17T00:19:40;10.00;;;5.07;;
21941;SDS011;11135;54.192;15.670;2022-10-17T00:22:46;8.82;;;4.40;;
21941;SDS011;11135;54.192;15.670;2022-10-17T00:25:56;8.43;;;4.70;;
21941;SDS011;11135;54.192;15.670;2022-10-17T00:29:06;6.15;;;5.20;;
21941;SDS011;11135;54.192;15.670;2022-10-17T00:32:12;7.47;;;4.18;;
21941;SDS011;11135;54.192;15.670;2022-10-17T00:35:17;8.77;;;4.72;;
21941;SDS011;11135;54.192;15.670;2022-10-17T00:38:25;11.35;;;5.03;;
21941;SDS011;11135;54.192;15.670;2022-10-17T00:41:31;8.02;;;4.72;;
21941;SDS011;11135;54.192;15.670;2022-10-17T00:48:01;5.75;;;4.45;;
21941;SDS011;11135;54.192;15.670;2022-10-17T00:51:07;7.18;;;4.45;;
21941;SDS011;11135;54.192;15.670;2022-10-17T00:54:13;7.10;;;4.38;;
21941;SDS011;11135;54.192;15.670;2022-10-17T00:57:20;9.23;;;4.72;;
21941;SDS011;11135;54.192;15.670;2022-10-17T01:00:25;6.90;;;4.90;;
21941;SDS011;11135;54.192;15.670;2022-10-17T01:03:33;13.18;;;5.38;;
21941;SDS011;11135;54.192;15.670;2022-10-17T01:06:40;8.65;;;5.10;;
21941;SDS011;11135;54.192;15.670;2022-10-17T01:09:46;9.73;;;4.88;;
21941;SDS011;11135;54.192;15.670;2022-10-17T01:12:55;6.72;;;4.25;;
21941;SDS011;11135;54.192;15.670;2022-10-17T01:16:03;8.43;;;5.15;;
21941;SDS011;11135;54.192;15.670;2022-10-17T01:19:22;8.38;;;5.63;;
21941;SDS011;11135;54.192;15.670;2022-10-17T01:22:30;7.18;;;5.38;;
21941;SDS011;11135;54.192;15.670;2022-10-17T01:25:41;7.10;;;5.53;;
21941;SDS011;11135;54.192;15.670;2022-10-17T01:29:04;7.85;;;5.50;;
21941;SDS011;11135;54.192;15.670;2022-10-17T01:32:19;8.25;;;5.68;;
21941;SDS011;11135;54.192;15.670;2022-10-17T01:35:26;7.03;;;5.35;;
21941;SDS011;11135;54.192;15.670;2022-10-17T01:38:34;8.00;;;5.38;;
21941;SDS011;11135;54.192;15.670;2022-10-17T01:41:42;8.73;;;4.85;;
21941;SDS011;11135;54.192;15.670;2022-10-17T01:44:52;7.45;;;5.38;;
21941;SDS011;11135;54.192;15.670;2022-10-17T01:48:02;9.02;;;5.63;;
21941;SDS011;11135;54.192;15.670;2022-10-17T01:51:11;9.82;;;5.10;;
21941;SDS011;11135;54.192;15.670;2022-10-17T01:54:18;7.05;;;5.18;;
21941;SDS011;11135;54.192;15.670;2022-10-17T01:57:26;9.05;;;5.88;;
21941;SDS011;11135;54.192;15.670;2022-10-17T02:00:32;8.57;;;5.75;;
21941;SDS011;11135;54.192;15.670;2022-10-17T02:03:41;7.90;;;5.32;;
21941;SDS011;11135;54.192;15.670;2022-10-17T02:06:47;8.52;;;5.70;;
21941;SDS011;11135;54.192;15.670;2022-10-17T02:09:53;9.00;;;5.22;;
21941;SDS011;11135;54.192;15.670;2022-10-17T02:12:59;7.53;;;5.10;;
21941;SDS011;11135;54.192;15.670;2022-10-17T02:16:08;8.30;;;5.50;;
21941;SDS011;11135;54.192;15.670;2022-10-17T02:19:22;7.88;;;4.72;;
21941;SDS011;11135;54.192;15.670;2022-10-17T02:22:33;9.15;;;5.00;;
21941;SDS011;11135;54.192;15.670;2022-10-17T02:25:40;6.82;;;5.38;;
21941;SDS011;11135;54.192;15.670;2022-10-17T02:28:50;8.77;;;5.18;;
21941;SDS011;11135;54.192;15.670;2022-10-17T02:31:58;9.65;;;4.63;;
21941;SDS011;11135;54.192;15.670;2022-10-17T02:35:09;6.47;;;4.15;;
21941;SDS011;11135;54.192;15.670;2022-10-17T02:38:15;6.97;;;5.43;;
21941;SDS011;11135;54.192;15.670;2022-10-17T02:41:20;6.50;;;4.68;;
21941;SDS011;11135;54.192;15.670;2022-10-17T02:44:26;8.18;;;5.07;;
21941;SDS011;11135;54.192;15.670;2022-10-17T02:47:33;6.65;;;4.97;;
21941;SDS011;11135;54.192;15.670;2022-10-17T02:50:45;9.35;;;5.05;;
21941;SDS011;11135;54.192;15.670;2022-10-17T02:53:54;7.35;;;4.05;;
21941;SDS011;11135;54.192;15.670;2022-10-17T02:57:01;14.15;;;5.10;;
21941;SDS011;11135;54.192;15.670;2022-10-17T03:00:11;10.95;;;5.50;;
21941;SDS011;11135;54.192;15.670;2022-10-17T03:03:18;6.07;;;4.53;;
21941;SDS011;11135;54.192;15.670;2022-10-17T03:06:26;5.70;;;4.65;;
21941;SDS011;11135;54.192;15.670;2022-10-17T03:09:31;6.40;;;5.03;;
21941;SDS011;11135;54.192;15.670;2022-10-17T03:12:37;9.55;;;4.28;;
21941;SDS011;11135;54.192;15.670;2022-10-17T03:15:42;7.22;;;4.40;;
21941;SDS011;11135;54.192;15.670;2022-10-17T03:18:48;10.00;;;5.15;;
21941;SDS011;11135;54.192;15.670;2022-10-17T03:21:56;6.47;;;4.78;;
21941;SDS011;11135;54.192;15.670;2022-10-17T03:25:01;6.55;;;4.25;;
21941;SDS011;11135;54.192;15.670;2022-10-17T03:28:06;6.88;;;5.30;;
21941;SDS011;11135;54.192;15.670;2022-10-17T03:31:12;6.60;;;4.32;;
21941;SDS011;11135;54.192;15.670;2022-10-17T03:34:17;8.15;;;5.38;;
21941;SDS011;11135;54.192;15.670;2022-10-17T03:37:27;7.03;;;5.10;;
21941;SDS011;11135;54.192;15.670;2022-10-17T03:40:32;7.03;;;4.63;;
21941;SDS011;11135;54.192;15.670;2022-10-17T03:43:38;9.43;;;5.30;;
21941;SDS011;11135;54.192;15.670;2022-10-17T03:46:43;6.53;;;4.70;;
21941;SDS011;11135;54.192;15.670;2022-10-17T03:49:48;6.68;;;4.38;;
21941;SDS011;11135;54.192;15.670;2022-10-17T03:52:57;7.15;;;4.88;;
21941;SDS011;11135;54.192;15.670;2022-10-17T03:56:09;8.57;;;4.70;;
21941;SDS011;11135;54.192;15.670;2022-10-17T03:59:14;5.97;;;4.35;;
21941;SDS011;11135;54.192;15.670;2022-10-17T04:02:19;8.27;;;4.80;;
21941;SDS011;11135;54.192;15.670;2022-10-17T04:05:24;7.45;;;4.45;;
21941;SDS011;11135;54.192;15.670;2022-10-17T04:08:33;6.32;;;4.10;;
21941;SDS011;11135;54.192;15.670;2022-10-17T04:11:38;6.75;;;4.85;;
21941;SDS011;11135;54.192;15.670;2022-10-17T04:14:43;9.02;;;4.50;;
21941;SDS011;11135;54.192;15.670;2022-10-17T04:17:48;6.43;;;4.28;;
21941;SDS011;11135;54.192;15.670;2022-10-17T04:20:54;6.85;;;4.30;;
21941;SDS011;11135;54.192;15.670;2022-10-17T04:24:01;8.18;;;4.53;;
21941;SDS011;11135;54.192;15.670;2022-10-17T04:27:06;6.65;;;4.80;;
21941;SDS011;11135;54.192;15.670;2022-10-17T04:30:11;5.75;;;4.78;;
21941;SDS011;11135;54.192;15.670;2022-10-17T04:33:17;6.13;;;4.40;;
21941;SDS011;11135;54.192;15.670;2022-10-17T04:36:22;8.48;;;4.40;;
21941;SDS011;11135;54.192;15.670;2022-10-17T04:39:30;6.57;;;4.53;;
21941;SDS011;11135;54.192;15.670;2022-10-17T04:42:39;7.07;;;4.30;;
21941;SDS011;11135;54.192;15.670;2022-10-17T04:45:44;7.50;;;4.13;;
21941;SDS011;11135;54.192;15.670;2022-10-17T04:48:58;9.27;;;4.30;;
21941;SDS011;11135;54.192;15.670;2022-10-17T04:52:05;7.53;;;4.95;;
21941;SDS011;11135;54.192;15.670;2022-10-17T04:55:12;7.75;;;4.43;;
21941;SDS011;11135;54.192;15.670;2022-10-17T04:58:18;6.75;;;4.88;;
21941;SDS011;11135;54.192;15.670;2022-10-17T05:01:24;6.40;;;4.55;;
21941;SDS011;11135;54.192;15.670;2022-10-17T05:04:30;5.50;;;4.20;;
21941;SDS011;11135;54.192;15.670;2022-10-17T05:07:40;8.85;;;4.38;;
21941;SDS011;11135;54.192;15.670;2022-10-17T05:10:48;9.38;;;4.63;;
21941;SDS011;11135;54.192;15.670;2022-10-17T05:13:53;5.32;;;4.18;;
21941;SDS011;11135;54.192;15.670;2022-10-17T05:16:59;6.50;;;4.18;;
21941;SDS011;11135;54.192;15.670;2022-10-17T05:20:05;9.95;;;3.90;;
21941;SDS011;11135;54.192;15.670;2022-10-17T05:23:12;9.73;;;5.10;;
21941;SDS011;11135;54.192;15.670;2022-10-17T05:26:20;6.15;;;4.30;;
21941;SDS011;11135;54.192;15.670;2022-10-17T05:29:26;7.90;;;4.05;;
21941;SDS011;11135;54.192;15.670;2022-10-17T05:32:31;6.78;;;3.97;;
21941;SDS011;11135;54.192;15.670;2022-10-17T05:35:37;6.03;;;5.13;;
21941;SDS011;11135;54.192;15.670;2022-10-17T05:38:42;7.40;;;3.72;;
21941;SDS011;11135;54.192;15.670;2022-10-17T05:41:50;7.72;;;4.15;;
21941;SDS011;11135;54.192;15.670;2022-10-17T05:44:55;6.88;;;4.53;;
21941;SDS011;11135;54.192;15.670;2022-10-17T05:48:02;6.82;;;4.63;;
21941;SDS011;11135;54.192;15.670;2022-10-17T05:51:08;5.70;;;4.63;;
21941;SDS011;11135;54.192;15.670;2022-10-17T05:54:13;7.20;;;5.20;;
21941;SDS011;11135;54.192;15.670;2022-10-17T05:57:23;8.70;;;5.10;;
21941;SDS011;11135;54.192;15.670;2022-10-17T06:00:30;7.07;;;5.25;;
21941;SDS011;11135;54.192;15.670;2022-10-17T06:03:37;6.63;;;5.32;;
21941;SDS011;11135;54.192;15.670;2022-10-17T06:06:42;7.55;;;4.55;;
21941;SDS011;11135;54.192;15.670;2022-10-17T06:09:47;7.65;;;4.70;;
21941;SDS011;11135;54.192;15.670;2022-10-17T06:12:55;5.90;;;4.45;;
21941;SDS011;11135;54.192;15.670;2022-10-17T06:16:00;6.57;;;4.70;;
21941;SDS011;11135;54.192;15.670;2022-10-17T06:19:07;6.47;;;4.70;;
21941;SDS011;11135;54.192;15.670;2022-10-17T06:22:12;6.93;;;4.95;;
21941;SDS011;11135;54.192;15.670;2022-10-17T06:25:18;8.85;;;4.82;;
21941;SDS011;11135;54.192;15.670;2022-10-17T06:28:26;8.63;;;4.97;;
21941;SDS011;11135;54.192;15.670;2022-10-17T06:31:31;7.80;;;4.95;;
21941;SDS011;11135;54.192;15.670;2022-10-17T06:34:37;6.80;;;4.10;;
21941;SDS011;11135;54.192;15.670;2022-10-17T06:37:42;7.00;;;4.85;;
21941;SDS011;11135;54.192;15.670;2022-10-17T06:40:47;5.50;;;4.28;;
21941;SDS011;11135;54.192;15.670;2022-10-17T06:43:58;6.38;;;4.38;;
21941;SDS011;11135;54.192;15.670;2022-10-17T06:47:09;5.38;;;3.95;;
21941;SDS011;11135;54.192;15.670;2022-10-17T06:50:21;5.15;;;3.88;;
21941;SDS011;11135;54.192;15.670;2022-10-17T06:53:26;5.45;;;3.72;;
21941;SDS011;11135;54.192;15.670;2022-10-17T06:56:32;7.93;;;4.07;;
21941;SDS011;11135;54.192;15.670;2022-10-17T06:59:40;4.57;;;3.55;;
21941;SDS011;11135;54.192;15.670;2022-10-17T07:02:45;4.80;;;3.65;;
21941;SDS011;11135;54.192;15.670;2022-10-17T07:05:51;7.05;;;3.97;;
21941;SDS011;11135;54.192;15.670;2022-10-17T07:08:56;6.35;;;3.88;;
21941;SDS011;11135;54.192;15.670;2022-10-17T07:12:04;5.85;;;4.13;;
21941;SDS011;11135;54.192;15.670;2022-10-17T07:15:13;6.68;;;4.15;;
21941;SDS011;11135;54.192;15.670;2022-10-17T07:18:18;5.95;;;3.75;;
21941;SDS011;11135;54.192;15.670;2022-10-17T07:21:24;6.13;;;4.25;;
21941;SDS011;11135;54.192;15.670;2022-10-17T07:24:38;6.75;;;4.13;;
21941;SDS011;11135;54.192;15.670;2022-10-17T07:27:44;5.22;;;3.92;;
21941;SDS011;11135;54.192;15.670;2022-10-17T07:30:52;6.40;;;4.15;;
21941;SDS011;11135;54.192;15.670;2022-10-17T07:33:59;6.80;;;4.97;;
21941;SDS011;11135;54.192;15.670;2022-10-17T07:37:04;8.23;;;4.57;;
21941;SDS011;11135;54.192;15.670;2022-10-17T07:40:13;5.63;;;4.72;;
21941;SDS011;11135;54.192;15.670;2022-10-17T07:43:18;6.47;;;3.92;;
21941;SDS011;11135;54.192;15.670;2022-10-17T07:46:26;7.35;;;4.68;;
21941;SDS011;11135;54.192;15.670;2022-10-17T07:49:31;6.40;;;4.50;;
21941;SDS011;11135;54.192;15.670;2022-10-17T07:52:37;6.65;;;4.40;;
21941;SDS011;11135;54.192;15.670;2022-10-17T07:55:46;4.53;;;3.70;;
21941;SDS011;11135;54.192;15.670;2022-10-17T07:58:53;5.80;;;4.63;;
21941;SDS011;11135;54.192;15.670;2022-10-17T08:02:21;5.15;;;3.80;;
21941;SDS011;11135;54.192;15.670;2022-10-17T08:05:34;6.78;;;3.38;;
21941;SDS011;11135;54.192;15.670;2022-10-17T08:08:39;5.28;;;3.97;;
21941;SDS011;11135;54.192;15.670;2022-10-17T08:11:45;6.18;;;4.22;;
21941;SDS011;11135;54.192;15.670;2022-10-17T08:14:50;4.70;;;3.22;;
21941;SDS011;11135;54.192;15.670;2022-10-17T08:18:00;5.22;;;3.08;;
21941;SDS011;11135;54.192;15.670;2022-10-17T08:21:05;5.65;;;3.42;;
21941;SDS011;11135;54.192;15.670;2022-10-17T08:24:11;4.57;;;2.83;;
21941;SDS011;11135;54.192;15.670;2022-10-17T08:27:18;6.20;;;3.08;;
21941;SDS011;11135;54.192;15.670;2022-10-17T08:30:27;7.18;;;2.80;;
21941;SDS011;11135;54.192;15.670;2022-10-17T08:33:36;3.60;;;2.67;;
21941;SDS011;11135;54.192;15.670;2022-10-17T08:36:42;4.50;;;2.75;;
21941;SDS011;11135;54.192;15.670;2022-10-17T08:39:49;5.50;;;2.72;;
21941;SDS011;11135;54.192;15.670;2022-10-17T08:42:59;6.10;;;2.67;;
21941;SDS011;11135;54.192;15.670;2022-10-17T08:46:08;4.38;;;2.70;;
21941;SDS011;11135;54.192;15.670;2022-10-17T08:49:18;6.18;;;2.60;;
21941;SDS011;11135;54.192;15.670;2022-10-17T08:52:29;5.25;;;2.88;;
21941;SDS011;11135;54.192;15.670;2022-10-17T08:55:37;4.43;;;2.97;;
21941;SDS011;11135;54.192;15.670;2022-10-17T08:58:48;4.70;;;3.17;;
21941;SDS011;11135;54.192;15.670;2022-10-17T09:01:57;4.70;;;2.60;;
21941;SDS011;11135;54.192;15.670;2022-10-17T09:08:36;6.47;;;2.72;;
21941;SDS011;11135;54.192;15.670;2022-10-17T09:11:51;5.68;;;2.45;;
21941;SDS011;11135;54.192;15.670;2022-10-17T09:18:29;4.95;;;2.33;;
21941;SDS011;11135;54.192;15.670;2022-10-17T09:21:41;3.53;;;2.40;;
21941;SDS011;11135;54.192;15.670;2022-10-17T09:24:55;7.50;;;2.40;;
21941;SDS011;11135;54.192;15.670;2022-10-17T09:28:05;3.55;;;2.08;;
21941;SDS011;11135;54.192;15.670;2022-10-17T09:31:16;7.85;;;2.63;;
21941;SDS011;11135;54.192;15.670;2022-10-17T09:34:23;4.50;;;2.40;;
21941;SDS011;11135;54.192;15.670;2022-10-17T09:37:30;4.22;;;2.50;;
21941;SDS011;11135;54.192;15.670;2022-10-17T09:40:41;3.30;;;2.05;;
21941;SDS011;11135;54.192;15.670;2022-10-17T09:43:47;4.88;;;2.33;;
21941;SDS011;11135;54.192;15.670;2022-10-17T09:50:15;3.30;;;2.00;;
21941;SDS011;11135;54.192;15.670;2022-10-17T09:53:23;3.95;;;2.13;;
21941;SDS011;11135;54.192;15.670;2022-10-17T10:00:03;2.70;;;1.92;;
21941;SDS011;11135;54.192;15.670;2022-10-17T10:03:18;2.92;;;1.98;;
21941;SDS011;11135;54.192;15.670;2022-10-17T10:06:24;3.33;;;2.00;;
21941;SDS011;11135;54.192;15.670;2022-10-17T10:09:30;5.10;;;2.33;;
21941;SDS011;11135;54.192;15.670;2022-10-17T10:12:43;2.17;;;1.73;;
21941;SDS011;11135;54.192;15.670;2022-10-17T10:16:17;16.35;;;2.58;;
21941;SDS011;11135;54.192;15.670;2022-10-17T10:19:26;3.65;;;2.22;;
21941;SDS011;11135;54.192;15.670;2022-10-17T10:22:32;3.63;;;2.00;;
21941;SDS011;11135;54.192;15.670;2022-10-17T10:25:47;5.53;;;2.08;;
21941;SDS011;11135;54.192;15.670;2022-10-17T10:28:55;4.05;;;1.80;;
21941;SDS011;11135;54.192;15.670;2022-10-17T10:32:15;2.25;;;1.88;;
21941;SDS011;11135;54.192;15.670;2022-10-17T10:35:23;3.83;;;2.28;;
21941;SDS011;11135;54.192;15.670;2022-10-17T10:38:33;5.03;;;2.35;;
21941;SDS011;11135;54.192;15.670;2022-10-17T10:41:47;5.10;;;2.13;;
21941;SDS011;11135;54.192;15.670;2022-10-17T10:44:56;2.97;;;2.13;;
21941;SDS011;11135;54.192;15.670;2022-10-17T10:48:14;3.95;;;2.42;;
21941;SDS011;11135;54.192;15.670;2022-10-17T10:51:24;2.55;;;2.00;;
21941;SDS011;11135;54.192;15.670;2022-10-17T10:54:35;4.30;;;2.63;;
21941;SDS011;11135;54.192;15.670;2022-10-17T10:57:44;3.92;;;2.20;;
21941;SDS011;11135;54.192;15.670;2022-10-17T11:00:51;3.85;;;2.42;;
21941;SDS011;11135;54.192;15.670;2022-10-17T11:04:19;3.25;;;2.35;;
21941;SDS011;11135;54.192;15.670;2022-10-17T11:07:31;4.30;;;2.13;;
21941;SDS011;11135;54.192;15.670;2022-10-17T11:10:42;4.28;;;2.40;;
21941;SDS011;11135;54.192;15.670;2022-10-17T11:13:49;4.13;;;2.00;;
21941;SDS011;11135;54.192;15.670;2022-10-17T11:17:01;4.15;;;2.38;;
21941;SDS011;11135;54.192;15.670;2022-10-17T11:20:14;3.83;;;2.50;;
21941;SDS011;11135;54.192;15.670;2022-10-17T11:23:23;4.38;;;2.58;;
21941;SDS011;11135;54.192;15.670;2022-10-17T11:26:34;4.63;;;2.53;;
21941;SDS011;11135;54.192;15.670;2022-10-17T11:32:49;3.28;;;2.63;;
21941;SDS011;11135;54.192;15.670;2022-10-17T11:36:03;3.80;;;2.93;;
21941;SDS011;11135;54.192;15.670;2022-10-17T11:39:14;6.18;;;3.45;;
21941;SDS011;11135;54.192;15.670;2022-10-17T11:42:22;5.75;;;3.00;;
21941;SDS011;11135;54.192;15.670;2022-10-17T11:45:30;5.28;;;3.55;;
21941;SDS011;11135;54.192;15.670;2022-10-17T11:48:38;10.15;;;3.63;;
21941;SDS011;11135;54.192;15.670;2022-10-17T11:51:49;5.57;;;3.50;;
21941;SDS011;11135;54.192;15.670;2022-10-17T11:55:04;5.47;;;3.60;;
21941;SDS011;11135;54.192;15.670;2022-10-17T11:58:21;6.82;;;4.13;;
21941;SDS011;11135;54.192;15.670;2022-10-17T12:01:31;5.25;;;3.75;;
21941;SDS011;11135;54.192;15.670;2022-10-17T12:04:39;6.45;;;3.92;;
21941;SDS011;11135;54.192;15.670;2022-10-17T12:07:55;6.03;;;4.25;;
21941;SDS011;11135;54.192;15.670;2022-10-17T12:11:09;4.80;;;4.28;;
21941;SDS011;11135;54.192;15.670;2022-10-17T12:14:38;4.25;;;3.70;;
21941;SDS011;11135;54.192;15.670;2022-10-17T12:17:49;7.68;;;4.45;;
21941;SDS011;11135;54.192;15.670;2022-10-17T12:21:04;6.60;;;4.15;;
21941;SDS011;11135;54.192;15.670;2022-10-17T12:24:16;6.63;;;4.50;;
21941;SDS011;11135;54.192;15.670;2022-10-17T12:27:41;6.38;;;4.63;;
21941;SDS011;11135;54.192;15.670;2022-10-17T12:30:48;8.07;;;4.75;;
21941;SDS011;11135;54.192;15.670;2022-10-17T12:33:54;7.03;;;5.10;;
21941;SDS011;11135;54.192;15.670;2022-10-17T12:37:02;6.47;;;5.13;;
21941;SDS011;11135;54.192;15.670;2022-10-17T12:51:03;7.53;;;6.15;;
21941;SDS011;11135;54.192;15.670;2022-10-17T12:54:30;10.90;;;6.57;;
21941;SDS011;11135;54.192;15.670;2022-10-17T12:58:03;7.68;;;5.93;;
21941;SDS011;11135;54.192;15.670;2022-10-17T13:01:13;7.55;;;6.70;;
21941;SDS011;11135;54.192;15.670;2022-10-17T13:04:25;9.35;;;6.47;;
21941;SDS011;11135;54.192;15.670;2022-10-17T13:07:39;10.25;;;7.55;;
21941;SDS011;11135;54.192;15.670;2022-10-17T13:10:48;7.60;;;6.45;;
21941;SDS011;11135;54.192;15.670;2022-10-17T13:13:57;10.55;;;6.50;;
21941;SDS011;11135;54.192;15.670;2022-10-17T13:17:05;9.15;;;6.68;;
21941;SDS011;11135;54.192;15.670;2022-10-17T13:20:21;8.27;;;7.13;;
21941;SDS011;11135;54.192;15.670;2022-10-17T13:23:36;8.90;;;6.72;;
21941;SDS011;11135;54.192;15.670;2022-10-17T13:26:46;9.05;;;7.57;;
21941;SDS011;11135;54.192;15.670;2022-10-17T13:29:58;9.02;;;7.43;;
21941;SDS011;11135;54.192;15.670;2022-10-17T13:33:16;8.35;;;7.55;;
21941;SDS011;11135;54.192;15.670;2022-10-17T13:36:22;8.77;;;7.75;;
21941;SDS011;11135;54.192;15.670;2022-10-17T13:39:32;9.60;;;8.60;;
21941;SDS011;11135;54.192;15.670;2022-10-17T13:42:58;9.25;;;7.55;;
21941;SDS011;11135;54.192;15.670;2022-10-17T13:46:11;10.15;;;8.18;;
21941;SDS011;11135;54.192;15.670;2022-10-17T13:49:39;10.13;;;7.47;;
21941;SDS011;11135;54.192;15.670;2022-10-17T13:52:46;9.98;;;8.43;;
21941;SDS011;11135;54.192;15.670;2022-10-17T13:56:14;12.68;;;9.48;;
21941;SDS011;11135;54.192;15.670;2022-10-17T13:59:33;9.85;;;8.63;;
21941;SDS011;11135;54.192;15.670;2022-10-17T14:02:41;11.90;;;9.93;;
21941;SDS011;11135;54.192;15.670;2022-10-17T14:05:57;9.88;;;8.65;;
21941;SDS011;11135;54.192;15.670;2022-10-17T14:09:06;11.50;;;9.82;;
21941;SDS011;11135;54.192;15.670;2022-10-17T14:12:24;11.90;;;9.82;;
21941;SDS011;11135;54.192;15.670;2022-10-17T14:15:32;11.43;;;9.20;;
21941;SDS011;11135;54.192;15.670;2022-10-17T14:18:39;12.77;;;10.02;;
21941;SDS011;11135;54.192;15.670;2022-10-17T14:21:48;15.23;;;10.10;;
21941;SDS011;11135;54.192;15.670;2022-10-17T14:24:58;12.65;;;10.05;;
21941;SDS011;11135;54.192;15.670;2022-10-17T14:28:12;11.50;;;10.05;;
21941;SDS011;11135;54.192;15.670;2022-10-17T14:31:23;11.18;;;9.55;;
21941;SDS011;11135;54.192;15.670;2022-10-17T14:34:31;14.27;;;9.45;;
21941;SDS011;11135;54.192;15.670;2022-10-17T14:37:48;12.45;;;9.18;;
21941;SDS011;11135;54.192;15.670;2022-10-17T14:40:55;11.27;;;9.15;;
21941;SDS011;11135;54.192;15.670;2022-10-17T14:44:31;10.35;;;8.65;;
21941;SDS011;11135;54.192;15.670;2022-10-17T14:47:42;14.35;;;10.27;;
21941;SDS011;11135;54.192;15.670;2022-10-17T14:51:06;11.90;;;8.95;;
21941;SDS011;11135;54.192;15.670;2022-10-17T14:54:16;14.18;;;9.50;;
21941;SDS011;11135;54.192;15.670;2022-10-17T14:57:25;11.80;;;8.48;;
21941;SDS011;11135;54.192;15.670;2022-10-17T15:00:34;11.77;;;9.35;;
21941;SDS011;11135;54.192;15.670;2022-10-17T15:03:39;12.02;;;8.68;;
21941;SDS011;11135;54.192;15.670;2022-10-17T15:06:52;10.55;;;9.45;;
21941;SDS011;11135;54.192;15.670;2022-10-17T15:09:58;11.05;;;9.77;;
21941;SDS011;11135;54.192;15.670;2022-10-17T15:13:06;12.45;;;9.45;;
21941;SDS011;11135;54.192;15.670;2022-10-17T15:16:38;10.10;;;9.00;;
21941;SDS011;11135;54.192;15.670;2022-10-17T15:19:44;13.35;;;9.60;;
21941;SDS011;11135;54.192;15.670;2022-10-17T15:22:56;12.50;;;9.35;;
21941;SDS011;11135;54.192;15.670;2022-10-17T15:26:09;12.07;;;9.55;;
21941;SDS011;11135;54.192;15.670;2022-10-17T15:29:19;11.50;;;9.10;;
21941;SDS011;11135;54.192;15.670;2022-10-17T15:32:28;11.55;;;9.63;;
21941;SDS011;11135;54.192;15.670;2022-10-17T15:35:35;13.10;;;9.25;;
21941;SDS011;11135;54.192;15.670;2022-10-17T15:38:46;11.90;;;9.30;;
21941;SDS011;11135;54.192;15.670;2022-10-17T15:41:53;11.98;;;9.32;;
21941;SDS011;11135;54.192;15.670;2022-10-17T15:45:00;13.55;;;9.95;;
21941;SDS011;11135;54.192;15.670;2022-10-17T15:48:23;13.77;;;9.77;;
21941;SDS011;11135;54.192;15.670;2022-10-17T15:51:33;11.48;;;9.73;;
21941;SDS011;11135;54.192;15.670;2022-10-17T15:54:40;12.32;;;8.73;;
21941;SDS011;11135;54.192;15.670;2022-10-17T15:57:49;13.20;;;9.73;;
21941;SDS011;11135;54.192;15.670;2022-10-17T16:00:57;12.13;;;9.05;;
21941;SDS011;11135;54.192;15.670;2022-10-17T16:10:31;13.13;;;9.75;;
21941;SDS011;11135;54.192;15.670;2022-10-17T16:13:38;11.35;;;9.18;;
21941;SDS011;11135;54.192;15.670;2022-10-17T16:16:45;13.52;;;9.20;;
21941;SDS011;11135;54.192;15.670;2022-10-17T16:19:54;14.75;;;9.75;;
21941;SDS011;11135;54.192;15.670;2022-10-17T16:23:02;14.70;;;10.02;;
21941;SDS011;11135;54.192;15.670;2022-10-17T16:26:13;12.65;;;9.48;;
21941;SDS011;11135;54.192;15.670;2022-10-17T16:29:20;10.63;;;9.18;;
21941;SDS011;11135;54.192;15.670;2022-10-17T16:32:26;13.18;;;9.82;;
21941;SDS011;11135;54.192;15.670;2022-10-17T16:35:34;11.60;;;8.98;;
21941;SDS011;11135;54.192;15.670;2022-10-17T16:38:41;14.80;;;9.07;;
21941;SDS011;11135;54.192;15.670;2022-10-17T16:41:48;10.52;;;8.85;;
21941;SDS011;11135;54.192;15.670;2022-10-17T16:45:02;10.38;;;8.95;;
21941;SDS011;11135;54.192;15.670;2022-10-17T16:48:08;13.07;;;9.30;;
21941;SDS011;11135;54.192;15.670;2022-10-17T16:51:18;12.38;;;9.43;;
21941;SDS011;11135;54.192;15.670;2022-10-17T16:54:25;11.30;;;9.30;;
21941;SDS011;11135;54.192;15.670;2022-10-17T16:57:37;11.40;;;8.88;;
21941;SDS011;11135;54.192;15.670;2022-10-17T17:00:42;11.43;;;8.73;;
21941;SDS011;11135;54.192;15.670;2022-10-17T17:03:51;11.90;;;9.52;;
21941;SDS011;11135;54.192;15.670;2022-10-17T17:07:10;12.18;;;10.07;;
21941;SDS011;11135;54.192;15.670;2022-10-17T17:10:33;10.18;;;9.10;;
21941;SDS011;11135;54.192;15.670;2022-10-17T17:13:49;14.38;;;10.48;;
21941;SDS011;11135;54.192;15.670;2022-10-17T17:16:55;12.30;;;9.20;;
21941;SDS011;11135;54.192;15.670;2022-10-17T17:19:59;11.90;;;9.57;;
21941;SDS011;11135;54.192;15.670;2022-10-17T17:23:11;13.13;;;9.95;;
21941;SDS011;11135;54.192;15.670;2022-10-17T17:26:17;12.52;;;10.23;;
21941;SDS011;11135;54.192;15.670;2022-10-17T17:29:28;11.27;;;8.93;;
21941;SDS011;11135;54.192;15.670;2022-10-17T17:32:33;12.05;;;10.35;;
21941;SDS011;11135;54.192;15.670;2022-10-17T17:35:41;12.90;;;9.70;;
21941;SDS011;11135;54.192;15.670;2022-10-17T17:38:52;12.45;;;10.38;;
21941;SDS011;11135;54.192;15.670;2022-10-17T17:42:02;15.20;;;9.27;;
21941;SDS011;11135;54.192;15.670;2022-10-17T17:45:08;11.23;;;8.90;;
21941;SDS011;11135;54.192;15.670;2022-10-17T17:48:25;12.45;;;10.25;;
21941;SDS011;11135;54.192;15.670;2022-10-17T17:51:30;11.00;;;9.80;;
21941;SDS011;11135;54.192;15.670;2022-10-17T17:54:38;14.82;;;10.25;;
21941;SDS011;11135;54.192;15.670;2022-10-17T17:57:43;15.15;;;9.50;;
21941;SDS011;11135;54.192;15.670;2022-10-17T18:00:54;11.93;;;9.55;;
21941;SDS011;11135;54.192;15.670;2022-10-17T18:03:59;13.02;;;9.30;;
21941;SDS011;11135;54.192;15.670;2022-10-17T18:07:09;12.23;;;9.60;;
21941;SDS011;11135;54.192;15.670;2022-10-17T18:10:16;13.75;;;9.95;;
21941;SDS011;11135;54.192;15.670;2022-10-17T18:13:24;12.27;;;9.27;;
21941;SDS011;11135;54.192;15.670;2022-10-17T18:16:31;14.13;;;9.73;;
21941;SDS011;11135;54.192;15.670;2022-10-17T18:19:37;13.35;;;9.38;;
21941;SDS011;11135;54.192;15.670;2022-10-17T18:22:42;12.15;;;9.52;;
21941;SDS011;11135;54.192;15.670;2022-10-17T18:25:56;12.20;;;9.40;;
21941;SDS011;11135;54.192;15.670;2022-10-17T18:29:02;11.98;;;10.20;;
21941;SDS011;11135;54.192;15.670;2022-10-17T18:32:08;13.02;;;9.02;;
21941;SDS011;11135;54.192;15.670;2022-10-17T18:35:16;12.35;;;8.63;;
21941;SDS011;11135;54.192;15.670;2022-10-17T18:38:21;16.02;;;8.85;;
21941;SDS011;11135;54.192;15.670;2022-10-17T18:41:34;11.05;;;8.73;;
21941;SDS011;11135;54.192;15.670;2022-10-17T18:44:51;14.00;;;8.88;;
21941;SDS011;11135;54.192;15.670;2022-10-17T18:47:56;10.82;;;8.65;;
21941;SDS011;11135;54.192;15.670;2022-10-17T18:51:03;10.90;;;8.70;;
21941;SDS011;11135;54.192;15.670;2022-10-17T18:54:10;11.80;;;8.48;;
21941;SDS011;11135;54.192;15.670;2022-10-17T18:57:20;15.15;;;9.23;;
21941;SDS011;11135;54.192;15.670;2022-10-17T19:00:27;12.30;;;8.32;;
21941;SDS011;11135;54.192;15.670;2022-10-17T19:03:34;11.88;;;8.07;;
21941;SDS011;11135;54.192;15.670;2022-10-17T19:06:40;12.10;;;8.52;;
21941;SDS011;11135;54.192;15.670;2022-10-17T19:09:46;9.65;;;8.43;;
21941;SDS011;11135;54.192;15.670;2022-10-17T19:12:54;12.40;;;8.13;;
21941;SDS011;11135;54.192;15.670;2022-10-17T19:16:04;12.23;;;9.40;;